sensor_id;sensor_type;location;lat;lon;timestamp;temperature;humidity
6903;DHT22;20232;49.408;8.702;2023-03-05T05:00:30;4.30;99.90
6903;DHT22;20232;49.408;8.702;2023-03-05T05:02:56;4.30;99.90
6903;DHT22;20232;49.408;8.702;2023-03-05T05:05:24;4.30;99.90
6903;DHT22;20232;49.408;8.702;2023-03-05T05:07:53;4.30;99.90
6903;DHT22;20232;49.408;8.702;2023-03-05T05:10:19;4.30;99.90
6903;DHT22;20232;49.408;8.702;2023-03-05T05:12:45;4.30;99.90
6903;DHT22;20232;49.408;8.702;2023-03-05T05:15:11;4.30;99.90
6903;DHT22;20232;49.408;8.702;2023-03-05T05:17:37;4.30;99.90
6903;DHT22;20232;49.408;8.702;2023-03-05T05:20:03;4.30;99.90
6903;DHT22;20232;49.408;8.702;2023-03-05T05:22:31;4.20;99.90
6903;DHT22;20232;49.408;8.702;2023-03-05T05:24:56;4.20;99.90
6903;DHT22;20232;49.408;8.702;2023-03-05T05:27:22;4.20;99.90
6903;DHT22;20232;49.408;8.702;2023-03-05T05:29:47;4.10;99.90
6903;DHT22;20232;49.408;8.702;2023-03-05T05:32:15;4.00;99.90
6903;DHT22;20232;49.408;8.702;2023-03-05T05:34:41;4.00;99.90
6903;DHT22;20232;49.408;8.702;2023-03-05T05:37:07;4.00;99.90
6903;DHT22;20232;49.408;8.702;2023-03-05T05:39:32;4.10;99.90
6903;DHT22;20232;49.408;8.702;2023-03-05T05:41:59;4.10;99.90
6903;DHT22;20232;49.408;8.702;2023-03-05T05:44:24;4.10;99.90
6903;DHT22;20232;49.408;8.702;2023-03-05T05:46:50;4.10;99.90
6903;DHT22;20232;49.408;8.702;2023-03-05T05:49:15;4.20;99.90
6903;DHT22;20232;49.408;8.702;2023-03-05T05:51:41;4.20;99.90
6903;DHT22;20232;49.408;8.702;2023-03-05T05:54:06;4.30;99.90
6903;DHT22;20232;49.408;8.702;2023-03-05T05:56:32;4.30;99.90
6903;DHT22;20232;49.408;8.702;2023-03-05T05:58:58;4.30;99.90
6903;DHT22;20232;49.408;8.702;2023-03-05T06:01:29;4.30;99.90
6903;DHT22;20232;49.408;8.702;2023-03-05T06:03:55;4.30;99.90
6903;DHT22;20232;49.408;8.702;2023-03-05T06:06:22;4.30;99.90
6903;DHT22;20232;49.408;8.702;2023-03-05T06:08:48;4.30;99.90
6903;DHT22;20232;49.408;8.702;2023-03-05T06:11:14;4.30;99.90
6903;DHT22;20232;49.408;8.702;2023-03-05T06:13:40;4.40;99.90
6903;DHT22;20232;49.408;8.702;2023-03-05T06:16:10;4.40;99.90
6903;DHT22;20232;49.408;8.702;2023-03-05T06:18:36;4.40;99.90
6903;DHT22;20232;49.408;8.702;2023-03-05T06:21:13;4.40;99.90
6903;DHT22;20232;49.408;8.702;2023-03-05T06:23:39;4.40;99.90
6903;DHT22;20232;49.408;8.702;2023-03-05T06:26:06;4.40;99.90
6903;DHT22;20232;49.408;8.702;2023-03-05T06:28:33;4.40;99.90
6903;DHT22;20232;49.408;8.702;2023-03-05T06:33:29;4.40;99.90
6903;DHT22;20232;49.408;8.702;2023-03-05T06:35:55;4.40;99.90
6903;DHT22;20232;49.408;8.702;2023-03-05T06:38:20;4.50;99.90
6903;DHT22;20232;49.408;8.702;2023-03-05T06:40:46;4.50;99.90
6903;DHT22;20232;49.408;8.702;2023-03-05T06:43:11;4.50;99.90
6903;DHT22;20232;49.408;8.702;2023-03-05T06:45:37;4.50;99.90
6903;DHT22;20232;49.408;8.702;2023-03-05T06:48:03;4.50;99.90
6903;DHT22;20232;49.408;8.702;2023-03-05T06:50:28;4.50;99.90
6903;DHT22;20232;49.408;8.702;2023-03-05T06:52:54;4.60;99.90
6903;DHT22;20232;49.408;8.702;2023-03-05T06:55:19;4.60;99.90
6903;DHT22;20232;49.408;8.702;2023-03-05T06:57:45;4.50;99.90
6903;DHT22;20232;49.408;8.702;2023-03-05T07:00:11;4.50;99.90
6903;DHT22;20232;49.408;8.702;2023-03-05T07:02:37;4.50;99.90
6903;DHT22;20232;49.408;8.702;2023-03-05T07:05:04;4.50;99.90
6903;DHT22;20232;49.408;8.702;2023-03-05T07:07:31;4.50;99.90
6903;DHT22;20232;49.408;8.702;2023-03-05T07:09:57;4.50;99.90
6903;DHT22;20232;49.408;8.702;2023-03-05T07:12:22;4.50;99.90
6903;DHT22;20232;49.408;8.702;2023-03-05T07:14:48;4.50;99.90
6903;DHT22;20232;49.408;8.702;2023-03-05T07:17:13;4.60;99.90
6903;DHT22;20232;49.408;8.702;2023-03-05T07:19:41;4.60;99.90
6903;DHT22;20232;49.408;8.702;2023-03-05T07:22:07;4.60;99.90
6903;DHT22;20232;49.408;8.702;2023-03-05T07:24:33;4.70;99.90
6903;DHT22;20232;49.408;8.702;2023-03-05T07:26:59;4.70;99.90
6903;DHT22;20232;49.408;8.702;2023-03-05T07:29:25;4.80;99.90
6903;DHT22;20232;49.408;8.702;2023-03-05T07:31:52;4.80;99.90
6903;DHT22;20232;49.408;8.702;2023-03-05T07:34:17;4.90;99.90
6903;DHT22;20232;49.408;8.702;2023-03-05T07:36:43;4.90;99.90
6903;DHT22;20232;49.408;8.702;2023-03-05T07:39:10;4.80;99.90
6903;DHT22;20232;49.408;8.702;2023-03-05T07:41:37;4.80;99.90
6903;DHT22;20232;49.408;8.702;2023-03-05T07:44:03;4.80;99.90
6903;DHT22;20232;49.408;8.702;2023-03-05T07:46:32;4.90;99.90
6903;DHT22;20232;49.408;8.702;2023-03-05T07:48:58;5.00;99.90
6903;DHT22;20232;49.408;8.702;2023-03-05T07:51:25;5.00;99.90
6903;DHT22;20232;49.408;8.702;2023-03-05T07:53:53;5.00;99.90
6903;DHT22;20232;49.408;8.702;2023-03-05T07:56:29;5.10;99.90
6903;DHT22;20232;49.408;8.702;2023-03-05T07:58:57;5.20;99.90
6903;DHT22;20232;49.408;8.702;2023-03-05T08:01:23;5.20;99.90
6903;DHT22;20232;49.408;8.702;2023-03-05T08:03:48;5.20;99.90
6903;DHT22;20232;49.408;8.702;2023-03-05T08:06:14;5.30;99.90
6903;DHT22;20232;49.408;8.702;2023-03-05T08:08:40;5.20;99.90
6903;DHT22;20232;49.408;8.702;2023-03-05T08:11:11;5.30;99.90
6903;DHT22;20232;49.408;8.702;2023-03-05T08:13:38;5.30;99.90
6903;DHT22;20232;49.408;8.702;2023-03-05T08:16:05;5.50;99.90
6903;DHT22;20232;49.408;8.702;2023-03-05T08:18:31;5.60;99.90
6903;DHT22;20232;49.408;8.702;2023-03-05T08:20:57;5.70;99.90
6903;DHT22;20232;49.408;8.702;2023-03-05T08:23:23;5.60;99.90
6903;DHT22;20232;49.408;8.702;2023-03-05T08:25:49;5.60;99.90
6903;DHT22;20232;49.408;8.702;2023-03-05T08:28:14;5.70;99.90
6903;DHT22;20232;49.408;8.702;2023-03-05T08:30:44;5.80;99.90
6903;DHT22;20232;49.408;8.702;2023-03-05T08:33:10;5.90;99.90
6903;DHT22;20232;49.408;8.702;2023-03-05T08:35:36;5.90;99.90
6903;DHT22;20232;49.408;8.702;2023-03-05T08:38:02;5.80;99.90
6903;DHT22;20232;49.408;8.702;2023-03-05T08:40:27;5.80;99.90
6903;DHT22;20232;49.408;8.702;2023-03-05T08:42:53;5.90;99.90
6903;DHT22;20232;49.408;8.702;2023-03-05T08:45:18;6.00;99.90
6903;DHT22;20232;49.408;8.702;2023-03-05T08:47:44;6.10;99.90
6903;DHT22;20232;49.408;8.702;2023-03-05T08:50:10;6.20;99.90
6903;DHT22;20232;49.408;8.702;2023-03-05T08:52:36;6.30;99.90
6903;DHT22;20232;49.408;8.702;2023-03-05T08:55:01;6.50;99.90
6903;DHT22;20232;49.408;8.702;2023-03-05T08:57:27;6.60;99.90
6903;DHT22;20232;49.408;8.702;2023-03-05T08:59:53;6.50;99.90
6903;DHT22;20232;49.408;8.702;2023-03-05T09:02:18;6.50;99.90
6903;DHT22;20232;49.408;8.702;2023-03-05T09:04:44;6.60;99.90
6903;DHT22;20232;49.408;8.702;2023-03-05T09:07:09;6.60;99.90
6903;DHT22;20232;49.408;8.702;2023-03-05T09:09:35;6.70;99.90
6903;DHT22;20232;49.408;8.702;2023-03-05T09:12:01;6.70;99.90
6903;DHT22;20232;49.408;8.702;2023-03-05T09:14:27;6.70;99.90
6903;DHT22;20232;49.408;8.702;2023-03-05T09:16:56;6.80;99.90
6903;DHT22;20232;49.408;8.702;2023-03-05T09:19:22;6.90;99.90
6903;DHT22;20232;49.408;8.702;2023-03-05T09:21:48;6.90;99.90
6903;DHT22;20232;49.408;8.702;2023-03-05T09:24:14;7.00;99.90
6903;DHT22;20232;49.408;8.702;2023-03-05T09:26:40;7.00;99.90
6903;DHT22;20232;49.408;8.702;2023-03-05T09:29:07;6.80;99.90
6903;DHT22;20232;49.408;8.702;2023-03-05T09:31:34;6.60;99.90
6903;DHT22;20232;49.408;8.702;2023-03-05T09:34:00;6.60;99.90
6903;DHT22;20232;49.408;8.702;2023-03-05T09:36:28;6.60;99.90
6903;DHT22;20232;49.408;8.702;2023-03-05T09:38:54;6.70;99.90
6903;DHT22;20232;49.408;8.702;2023-03-05T09:49:32;7.00;99.90
6903;DHT22;20232;49.408;8.702;2023-03-05T09:52:13;7.10;99.90
6903;DHT22;20232;49.408;8.702;2023-03-05T09:54:42;7.20;99.90
6903;DHT22;20232;49.408;8.702;2023-03-05T09:57:17;7.30;99.90
6903;DHT22;20232;49.408;8.702;2023-03-05T09:59:55;7.30;99.90
6903;DHT22;20232;49.408;8.702;2023-03-05T10:02:27;7.40;99.90
6903;DHT22;20232;49.408;8.702;2023-03-05T10:05:03;7.30;99.90
6903;DHT22;20232;49.408;8.702;2023-03-05T10:07:35;7.20;99.90
6903;DHT22;20232;49.408;8.702;2023-03-05T10:10:11;7.30;99.90
6903;DHT22;20232;49.408;8.702;2023-03-05T10:12:56;7.30;99.90
6903;DHT22;20232;49.408;8.702;2023-03-05T10:15:36;7.30;99.90
6903;DHT22;20232;49.408;8.702;2023-03-05T10:18:34;7.20;99.90
6903;DHT22;20232;49.408;8.702;2023-03-05T10:21:09;6.90;99.90
6903;DHT22;20232;49.408;8.702;2023-03-05T10:31:44;6.90;99.90
6903;DHT22;20232;49.408;8.702;2023-03-05T10:37:08;7.10;99.90
6903;DHT22;20232;49.408;8.702;2023-03-05T10:43:06;7.20;99.90
6903;DHT22;20232;49.408;8.702;2023-03-05T10:45:40;7.20;99.90
6903;DHT22;20232;49.408;8.702;2023-03-05T10:48:32;7.10;99.90
6903;DHT22;20232;49.408;8.702;2023-03-05T10:54:30;7.00;99.90
6903;DHT22;20232;49.408;8.702;2023-03-05T10:56:50;6.90;99.90
6903;DHT22;20232;49.408;8.702;2023-03-05T10:59:16;6.90;99.90
6903;DHT22;20232;49.408;8.702;2023-03-05T11:01:41;7.00;99.90
6903;DHT22;20232;49.408;8.702;2023-03-05T11:04:27;7.20;99.90
6903;DHT22;20232;49.408;8.702;2023-03-05T11:06:53;7.30;99.90
6903;DHT22;20232;49.408;8.702;2023-03-05T11:09:31;7.40;99.90
6903;DHT22;20232;49.408;8.702;2023-03-05T11:14:33;7.10;99.90
6903;DHT22;20232;49.408;8.702;2023-03-05T11:17:02;7.00;99.90
6903;DHT22;20232;49.408;8.702;2023-03-05T11:19:33;6.90;99.90
6903;DHT22;20232;49.408;8.702;2023-03-05T11:22:15;6.90;99.90
6903;DHT22;20232;49.408;8.702;2023-03-05T11:24:43;6.80;99.90
6903;DHT22;20232;49.408;8.702;2023-03-05T11:27:41;6.70;99.90
6903;DHT22;20232;49.408;8.702;2023-03-05T11:30:26;6.70;99.90
6903;DHT22;20232;49.408;8.702;2023-03-05T11:33:13;6.70;99.90
6903;DHT22;20232;49.408;8.702;2023-03-05T11:35:41;6.70;99.90
6903;DHT22;20232;49.408;8.702;2023-03-05T11:40:40;6.80;99.90
6903;DHT22;20232;49.408;8.702;2023-03-05T11:43:09;6.80;99.90
6903;DHT22;20232;49.408;8.702;2023-03-05T11:45:39;6.80;99.90
6903;DHT22;20232;49.408;8.702;2023-03-05T11:50:43;6.70;99.90
6903;DHT22;20232;49.408;8.702;2023-03-05T11:53:24;6.60;99.90
6903;DHT22;20232;49.408;8.702;2023-03-05T12:00:45;6.80;99.90
6903;DHT22;20232;49.408;8.702;2023-03-05T12:03:15;6.90;99.90
6903;DHT22;20232;49.408;8.702;2023-03-05T12:05:44;7.10;99.90
6903;DHT22;20232;49.408;8.702;2023-03-05T12:08:19;7.20;99.90
6903;DHT22;20232;49.408;8.702;2023-03-05T12:10:47;7.20;99.90
6903;DHT22;20232;49.408;8.702;2023-03-05T12:23:59;7.30;99.90
6903;DHT22;20232;49.408;8.702;2023-03-05T12:34:49;6.70;99.90
6903;DHT22;20232;49.408;8.702;2023-03-05T12:39:49;6.60;99.90
6903;DHT22;20232;49.408;8.702;2023-03-05T12:47:44;6.40;99.90
6903;DHT22;20232;49.408;8.702;2023-03-05T12:52:52;6.50;99.90
6903;DHT22;20232;49.408;8.702;2023-03-05T12:55:22;6.50;99.90
6903;DHT22;20232;49.408;8.702;2023-03-05T13:03:55;6.70;99.90
6903;DHT22;20232;49.408;8.702;2023-03-05T13:06:30;6.70;99.90
6903;DHT22;20232;49.408;8.702;2023-03-05T13:09:06;6.70;99.90
6903;DHT22;20232;49.408;8.702;2023-03-05T13:11:35;6.80;99.90
6903;DHT22;20232;49.408;8.702;2023-03-05T13:14:02;6.80;99.90
6903;DHT22;20232;49.408;8.702;2023-03-05T13:16:36;6.80;99.90
6903;DHT22;20232;49.408;8.702;2023-03-05T13:19:02;6.80;99.90
6903;DHT22;20232;49.408;8.702;2023-03-05T13:21:30;6.80;99.90
6903;DHT22;20232;49.408;8.702;2023-03-05T13:23:59;6.70;99.90
6903;DHT22;20232;49.408;8.702;2023-03-05T13:26:28;6.70;99.90
6903;DHT22;20232;49.408;8.702;2023-03-05T13:29:23;6.70;99.90
6903;DHT22;20232;49.408;8.702;2023-03-05T13:32:16;6.50;99.90
6903;DHT22;20232;49.408;8.702;2023-03-05T13:34:45;6.50;99.90
6903;DHT22;20232;49.408;8.702;2023-03-05T13:37:17;6.30;99.90
6903;DHT22;20232;49.408;8.702;2023-03-05T13:39:51;6.30;99.90
6903;DHT22;20232;49.408;8.702;2023-03-05T13:42:29;6.30;99.90
6903;DHT22;20232;49.408;8.702;2023-03-05T13:45:05;6.40;99.90
6903;DHT22;20232;49.408;8.702;2023-03-05T13:47:34;6.50;99.90
6903;DHT22;20232;49.408;8.702;2023-03-05T13:50:06;6.60;99.90
6903;DHT22;20232;49.408;8.702;2023-03-05T13:52:35;6.70;99.90
6903;DHT22;20232;49.408;8.702;2023-03-05T13:55:03;6.80;99.90
6903;DHT22;20232;49.408;8.702;2023-03-05T13:57:48;6.80;99.90
6903;DHT22;20232;49.408;8.702;2023-03-05T14:00:34;6.80;99.90
6903;DHT22;20232;49.408;8.702;2023-03-05T14:03:22;6.90;99.90
6903;DHT22;20232;49.408;8.702;2023-03-05T14:05:50;6.90;99.90
6903;DHT22;20232;49.408;8.702;2023-03-05T14:08:22;6.90;99.90
6903;DHT22;20232;49.408;8.702;2023-03-05T14:10:50;6.90;99.90
6903;DHT22;20232;49.408;8.702;2023-03-05T14:13:22;7.00;99.90
6903;DHT22;20232;49.408;8.702;2023-03-05T14:16:12;7.00;99.90
6903;DHT22;20232;49.408;8.702;2023-03-05T14:18:49;6.90;99.90
6903;DHT22;20232;49.408;8.702;2023-03-05T14:21:16;6.90;99.90
6903;DHT22;20232;49.408;8.702;2023-03-05T14:23:44;6.90;99.90
6903;DHT22;20232;49.408;8.702;2023-03-05T14:31:29;6.60;99.90
6903;DHT22;20232;49.408;8.702;2023-03-05T14:34:03;6.60;99.90
6903;DHT22;20232;49.408;8.702;2023-03-05T14:36:29;6.70;99.90
6903;DHT22;20232;49.408;8.702;2023-03-05T14:38:55;6.60;99.90
6903;DHT22;20232;49.408;8.702;2023-03-05T14:41:40;6.50;99.90
6903;DHT22;20232;49.408;8.702;2023-03-05T14:44:15;6.50;99.90
6903;DHT22;20232;49.408;8.702;2023-03-05T14:46:42;6.40;99.90
6903;DHT22;20232;49.408;8.702;2023-03-05T14:49:12;6.50;99.90
6903;DHT22;20232;49.408;8.702;2023-03-05T14:51:40;6.50;99.90
6903;DHT22;20232;49.408;8.702;2023-03-05T14:54:14;6.40;99.90
6903;DHT22;20232;49.408;8.702;2023-03-05T14:56:41;6.50;99.90
6903;DHT22;20232;49.408;8.702;2023-03-05T14:59:07;6.50;99.90
6903;DHT22;20232;49.408;8.702;2023-03-05T15:01:33;6.40;99.90
6903;DHT22;20232;49.408;8.702;2023-03-05T15:03:59;6.40;99.90
6903;DHT22;20232;49.408;8.702;2023-03-05T15:06:34;6.30;99.90
6903;DHT22;20232;49.408;8.702;2023-03-05T15:09:01;6.30;99.90
6903;DHT22;20232;49.408;8.702;2023-03-05T15:11:28;6.30;99.90
6903;DHT22;20232;49.408;8.702;2023-03-05T15:13:54;6.40;99.90
6903;DHT22;20232;49.408;8.702;2023-03-05T15:16:21;6.40;99.90
6903;DHT22;20232;49.408;8.702;2023-03-05T15:18:46;6.30;99.90
6903;DHT22;20232;49.408;8.702;2023-03-05T15:21:12;6.30;99.90
6903;DHT22;20232;49.408;8.702;2023-03-05T15:23:38;6.30;99.90
6903;DHT22;20232;49.408;8.702;2023-03-05T15:26:06;6.30;99.90
6903;DHT22;20232;49.408;8.702;2023-03-05T15:28:34;6.30;99.90
6903;DHT22;20232;49.408;8.702;2023-03-05T15:31:01;6.30;99.90
6903;DHT22;20232;49.408;8.702;2023-03-05T15:33:27;6.30;99.90
6903;DHT22;20232;49.408;8.702;2023-03-05T15:35:53;6.30;99.90
6903;DHT22;20232;49.408;8.702;2023-03-05T15:38:19;6.20;99.90
6903;DHT22;20232;49.408;8.702;2023-03-05T15:40:45;6.20;99.90
6903;DHT22;20232;49.408;8.702;2023-03-05T15:43:11;6.20;99.90
6903;DHT22;20232;49.408;8.702;2023-03-05T15:45:37;6.20;99.90
6903;DHT22;20232;49.408;8.702;2023-03-05T15:48:03;6.20;99.90
6903;DHT22;20232;49.408;8.702;2023-03-05T15:50:29;6.20;99.90
6903;DHT22;20232;49.408;8.702;2023-03-05T15:52:54;6.20;99.90
6903;DHT22;20232;49.408;8.702;2023-03-05T15:55:20;6.20;99.90
6903;DHT22;20232;49.408;8.702;2023-03-05T15:57:48;6.20;99.90
6903;DHT22;20232;49.408;8.702;2023-03-05T16:00:16;6.20;99.90
6903;DHT22;20232;49.408;8.702;2023-03-05T16:02:43;6.30;99.90
6903;DHT22;20232;49.408;8.702;2023-03-05T16:05:09;6.30;99.90
6903;DHT22;20232;49.408;8.702;2023-03-05T16:07:36;6.20;99.90
6903;DHT22;20232;49.408;8.702;2023-03-05T16:10:03;6.20;99.90
6903;DHT22;20232;49.408;8.702;2023-03-05T16:12:35;6.20;99.90
6903;DHT22;20232;49.408;8.702;2023-03-05T16:15:10;6.20;99.90
6903;DHT22;20232;49.408;8.702;2023-03-05T16:17:37;6.30;99.90
6903;DHT22;20232;49.408;8.702;2023-03-05T16:20:04;6.30;99.90
6903;DHT22;20232;49.408;8.702;2023-03-05T16:22:31;6.30;99.90
6903;DHT22;20232;49.408;8.702;2023-03-05T16:24:56;6.30;99.90
6903;DHT22;20232;49.408;8.702;2023-03-05T16:27:22;6.30;99.90
6903;DHT22;20232;49.408;8.702;2023-03-05T16:29:48;6.30;99.90
6903;DHT22;20232;49.408;8.702;2023-03-05T16:32:15;6.20;99.90
6903;DHT22;20232;49.408;8.702;2023-03-05T16:34:42;6.30;99.90
6903;DHT22;20232;49.408;8.702;2023-03-05T16:37:07;6.20;99.90
6903;DHT22;20232;49.408;8.702;2023-03-05T16:39:33;6.20;99.90
6903;DHT22;20232;49.408;8.702;2023-03-05T16:41:58;6.20;99.90
6903;DHT22;20232;49.408;8.702;2023-03-05T16:44:24;6.20;99.90
6903;DHT22;20232;49.408;8.702;2023-03-05T16:46:50;6.10;99.90
6903;DHT22;20232;49.408;8.702;2023-03-05T16:49:21;6.10;99.90
6903;DHT22;20232;49.408;8.702;2023-03-05T16:51:47;6.10;99.90
6903;DHT22;20232;49.408;8.702;2023-03-05T16:54:13;6.00;99.90
6903;DHT22;20232;49.408;8.702;2023-03-05T16:56:38;6.00;99.90
6903;DHT22;20232;49.408;8.702;2023-03-05T16:59:04;5.90;99.90
6903;DHT22;20232;49.408;8.702;2023-03-05T17:01:29;5.90;99.90
6903;DHT22;20232;49.408;8.702;2023-03-05T17:03:59;5.80;99.90
6903;DHT22;20232;49.408;8.702;2023-03-05T17:06:27;5.80;99.90
6903;DHT22;20232;49.408;8.702;2023-03-05T17:08:55;5.80;99.90
6903;DHT22;20232;49.408;8.702;2023-03-05T17:11:20;5.80;99.90
6903;DHT22;20232;49.408;8.702;2023-03-05T17:13:47;5.80;99.90
6903;DHT22;20232;49.408;8.702;2023-03-05T17:16:14;5.80;99.90
6903;DHT22;20232;49.408;8.702;2023-03-05T17:18:40;5.80;99.90
6903;DHT22;20232;49.408;8.702;2023-03-05T17:21:06;5.80;99.90
6903;DHT22;20232;49.408;8.702;2023-03-05T17:23:36;5.80;99.90
6903;DHT22;20232;49.408;8.702;2023-03-05T17:26:14;5.80;99.90
6903;DHT22;20232;49.408;8.702;2023-03-05T17:28:40;5.80;99.90
6903;DHT22;20232;49.408;8.702;2023-03-05T17:31:06;5.80;99.90
6903;DHT22;20232;49.408;8.702;2023-03-05T17:33:33;5.70;99.90
6903;DHT22;20232;49.408;8.702;2023-03-05T17:35:59;5.70;99.90
6903;DHT22;20232;49.408;8.702;2023-03-05T17:38:25;5.70;99.90
6903;DHT22;20232;49.408;8.702;2023-03-05T17:40:51;5.60;99.90
6903;DHT22;20232;49.408;8.702;2023-03-05T17:43:17;5.60;99.90
6903;DHT22;20232;49.408;8.702;2023-03-05T17:45:44;5.60;99.90
6903;DHT22;20232;49.408;8.702;2023-03-05T17:48:11;5.50;99.90
6903;DHT22;20232;49.408;8.702;2023-03-05T17:50:36;5.50;99.90
6903;DHT22;20232;49.408;8.702;2023-03-05T17:53:02;5.50;99.90
6903;DHT22;20232;49.408;8.702;2023-03-05T17:55:29;5.50;99.90
6903;DHT22;20232;49.408;8.702;2023-03-05T17:57:55;5.50;99.90
6903;DHT22;20232;49.408;8.702;2023-03-05T18:00:26;5.50;99.90
6903;DHT22;20232;49.408;8.702;2023-03-05T18:02:52;5.50;99.90
6903;DHT22;20232;49.408;8.702;2023-03-05T18:05:19;5.50;99.90
6903;DHT22;20232;49.408;8.702;2023-03-05T18:07:45;5.50;99.90
6903;DHT22;20232;49.408;8.702;2023-03-05T18:10:12;5.50;99.90
6903;DHT22;20232;49.408;8.702;2023-03-05T18:12:39;5.40;99.90
6903;DHT22;20232;49.408;8.702;2023-03-05T18:15:06;5.40;99.90
6903;DHT22;20232;49.408;8.702;2023-03-05T18:17:33;5.40;99.90
6903;DHT22;20232;49.408;8.702;2023-03-05T18:19:58;5.40;99.90
6903;DHT22;20232;49.408;8.702;2023-03-05T18:22:24;5.50;99.90
6903;DHT22;20232;49.408;8.702;2023-03-05T18:24:49;5.40;99.90
6903;DHT22;20232;49.408;8.702;2023-03-05T18:27:17;5.40;99.90
6903;DHT22;20232;49.408;8.702;2023-03-05T18:29:43;5.40;99.90
6903;DHT22;20232;49.408;8.702;2023-03-05T18:32:08;5.30;99.90
6903;DHT22;20232;49.408;8.702;2023-03-05T18:34:34;5.40;99.90
6903;DHT22;20232;49.408;8.702;2023-03-05T18:36:59;5.40;99.90
6903;DHT22;20232;49.408;8.702;2023-03-05T18:39:26;5.40;99.90
6903;DHT22;20232;49.408;8.702;2023-03-05T18:41:57;5.30;99.90
6903;DHT22;20232;49.408;8.702;2023-03-05T18:44:23;5.20;99.90
6903;DHT22;20232;49.408;8.702;2023-03-05T18:46:48;5.20;99.90
6903;DHT22;20232;49.408;8.702;2023-03-05T18:49:14;5.10;99.90
6903;DHT22;20232;49.408;8.702;2023-03-05T18:51:40;5.10;99.90
6903;DHT22;20232;49.408;8.702;2023-03-05T18:54:07;5.10;99.90
6903;DHT22;20232;49.408;8.702;2023-03-05T18:56:33;5.20;99.90
6903;DHT22;20232;49.408;8.702;2023-03-05T18:58:59;5.10;99.90
6903;DHT22;20232;49.408;8.702;2023-03-05T19:01:24;5.10;99.90
6903;DHT22;20232;49.408;8.702;2023-03-05T19:03:50;5.10;99.90
6903;DHT22;20232;49.408;8.702;2023-03-05T19:06:16;5.10;99.90
6903;DHT22;20232;49.408;8.702;2023-03-05T19:08:43;5.20;99.90
6903;DHT22;20232;49.408;8.702;2023-03-05T19:11:19;5.20;99.90
6903;DHT22;20232;49.408;8.702;2023-03-05T19:13:46;5.20;99.90
6903;DHT22;20232;49.408;8.702;2023-03-05T19:16:26;5.20;99.90
6903;DHT22;20232;49.408;8.702;2023-03-05T19:19:06;5.20;99.90
6903;DHT22;20232;49.408;8.702;2023-03-05T19:21:43;5.10;99.90
6903;DHT22;20232;49.408;8.702;2023-03-05T19:24:09;5.10;99.90
6903;DHT22;20232;49.408;8.702;2023-03-05T19:26:35;5.10;99.90
6903;DHT22;20232;49.408;8.702;2023-03-05T19:29:02;5.10;99.90
6903;DHT22;20232;49.408;8.702;2023-03-05T19:31:28;5.10;99.90
6903;DHT22;20232;49.408;8.702;2023-03-05T19:33:54;5.10;99.90
6903;DHT22;20232;49.408;8.702;2023-03-05T19:36:19;5.00;99.90
6903;DHT22;20232;49.408;8.702;2023-03-05T19:38:45;5.00;99.90
6903;DHT22;20232;49.408;8.702;2023-03-05T19:41:11;5.00;99.90
6903;DHT22;20232;49.408;8.702;2023-03-05T19:43:38;4.90;99.90
6903;DHT22;20232;49.408;8.702;2023-03-05T19:46:05;4.90;99.90
6903;DHT22;20232;49.408;8.702;2023-03-05T19:48:32;4.90;99.90
6903;DHT22;20232;49.408;8.702;2023-03-05T19:50:58;4.90;99.90
6903;DHT22;20232;49.408;8.702;2023-03-05T19:53:23;5.00;99.90
6903;DHT22;20232;49.408;8.702;2023-03-05T19:55:49;4.90;99.90
6903;DHT22;20232;49.408;8.702;2023-03-05T19:58:15;5.00;99.90
6903;DHT22;20232;49.408;8.702;2023-03-05T20:00:40;5.00;99.90
6903;DHT22;20232;49.408;8.702;2023-03-05T20:03:06;4.90;99.90
6903;DHT22;20232;49.408;8.702;2023-03-05T20:05:32;4.90;99.90
6903;DHT22;20232;49.408;8.702;2023-03-05T20:07:57;4.90;99.90
6903;DHT22;20232;49.408;8.702;2023-03-05T20:10:23;4.90;99.90
6903;DHT22;20232;49.408;8.702;2023-03-05T20:12:49;4.90;99.90
6903;DHT22;20232;49.408;8.702;2023-03-05T20:15:16;4.90;99.90
6903;DHT22;20232;49.408;8.702;2023-03-05T20:17:42;4.90;99.90
6903;DHT22;20232;49.408;8.702;2023-03-05T20:20:14;4.90;99.90
6903;DHT22;20232;49.408;8.702;2023-03-05T20:22:45;4.80;99.90
6903;DHT22;20232;49.408;8.702;2023-03-05T20:25:14;4.80;99.90
6903;DHT22;20232;49.408;8.702;2023-03-05T20:27:45;4.80;99.90
6903;DHT22;20232;49.408;8.702;2023-03-05T20:30:13;4.80;99.90
6903;DHT22;20232;49.408;8.702;2023-03-05T20:32:39;4.80;99.90
6903;DHT22;20232;49.408;8.702;2023-03-05T20:35:06;4.80;99.90
6903;DHT22;20232;49.408;8.702;2023-03-05T20:37:31;4.80;99.90
6903;DHT22;20232;49.408;8.702;2023-03-05T20:40:05;4.80;99.90
6903;DHT22;20232;49.408;8.702;2023-03-05T20:42:31;4.90;99.90
6903;DHT22;20232;49.408;8.702;2023-03-05T20:44:57;4.80;99.90
6903;DHT22;20232;49.408;8.702;2023-03-05T20:47:22;4.80;99.90
6903;DHT22;20232;49.408;8.702;2023-03-05T20:50:02;4.80;99.90
6903;DHT22;20232;49.408;8.702;2023-03-05T20:52:27;4.80;99.90
6903;DHT22;20232;49.408;8.702;2023-03-05T20:54:53;4.90;99.90
6903;DHT22;20232;49.408;8.702;2023-03-05T20:57:19;5.00;99.90
6903;DHT22;20232;49.408;8.702;2023-03-05T20:59:44;4.90;99.90
6903;DHT22;20232;49.408;8.702;2023-03-05T21:02:10;4.90;99.90
6903;DHT22;20232;49.408;8.702;2023-03-05T21:04:35;4.90;99.90
6903;DHT22;20232;49.408;8.702;2023-03-05T21:07:01;4.90;99.90
6903;DHT22;20232;49.408;8.702;2023-03-05T21:09:28;4.90;99.90
6903;DHT22;20232;49.408;8.702;2023-03-05T21:11:54;4.90;99.90
6903;DHT22;20232;49.408;8.702;2023-03-05T21:14:19;4.80;99.90
6903;DHT22;20232;49.408;8.702;2023-03-05T21:16:45;4.80;99.90
6903;DHT22;20232;49.408;8.702;2023-03-05T21:19:10;4.80;99.90
6903;DHT22;20232;49.408;8.702;2023-03-05T21:21:36;4.80;99.90
6903;DHT22;20232;49.408;8.702;2023-03-05T21:24:03;4.80;99.90
6903;DHT22;20232;49.408;8.702;2023-03-05T21:26:29;4.80;99.90
6903;DHT22;20232;49.408;8.702;2023-03-05T21:28:54;4.80;99.90
6903;DHT22;20232;49.408;8.702;2023-03-05T21:31:21;4.80;99.90
6903;DHT22;20232;49.408;8.702;2023-03-05T21:33:47;4.70;99.90
6903;DHT22;20232;49.408;8.702;2023-03-05T21:36:13;4.70;99.90
6903;DHT22;20232;49.408;8.702;2023-03-05T21:38:46;4.60;99.90
6903;DHT22;20232;49.408;8.702;2023-03-05T21:41:12;4.70;99.90
6903;DHT22;20232;49.408;8.702;2023-03-05T21:43:38;4.70;99.90
6903;DHT22;20232;49.408;8.702;2023-03-05T21:46:04;4.70;99.90
6903;DHT22;20232;49.408;8.702;2023-03-05T21:48:30;4.70;99.90
6903;DHT22;20232;49.408;8.702;2023-03-05T21:50:56;4.80;99.90
6903;DHT22;20232;49.408;8.702;2023-03-05T21:53:23;4.70;99.90
6903;DHT22;20232;49.408;8.702;2023-03-05T21:55:49;4.70;99.90
6903;DHT22;20232;49.408;8.702;2023-03-05T21:58:28;4.70;99.90
6903;DHT22;20232;49.408;8.702;2023-03-05T22:00:53;4.70;99.90
6903;DHT22;20232;49.408;8.702;2023-03-05T22:03:19;4.70;99.90
6903;DHT22;20232;49.408;8.702;2023-03-05T22:05:45;4.70;99.90
6903;DHT22;20232;49.408;8.702;2023-03-05T22:08:10;4.70;99.90
6903;DHT22;20232;49.408;8.702;2023-03-05T22:10:36;4.60;99.90
6903;DHT22;20232;49.408;8.702;2023-03-05T22:13:08;4.60;99.90
6903;DHT22;20232;49.408;8.702;2023-03-05T22:15:44;4.60;99.90
6903;DHT22;20232;49.408;8.702;2023-03-05T22:18:11;4.60;99.90
6903;DHT22;20232;49.408;8.702;2023-03-05T22:20:37;4.60;99.90
6903;DHT22;20232;49.408;8.702;2023-03-05T22:23:03;4.60;99.90
6903;DHT22;20232;49.408;8.702;2023-03-05T22:25:29;4.60;99.90
6903;DHT22;20232;49.408;8.702;2023-03-05T22:27:54;4.60;99.90
6903;DHT22;20232;49.408;8.702;2023-03-05T22:30:20;4.60;99.90